createdAt,value
2022-10-28T00:00:53.605Z,17.11
2022-10-28T00:03:21.596Z,17.15
2022-10-28T00:05:49.917Z,17.09
2022-10-28T00:08:17.949Z,17.20
2022-10-28T00:10:45.999Z,17.13
2022-10-28T00:13:14.459Z,17.03
2022-10-28T00:15:42.752Z,17.02
2022-10-28T00:18:12.445Z,16.98
2022-10-28T00:20:40.425Z,17.01
2022-10-28T00:23:08.492Z,16.97
2022-10-28T00:25:36.452Z,17.05
2022-10-28T00:28:05.041Z,17.03
2022-10-28T00:30:33.017Z,17.07
2022-10-28T00:33:01.025Z,17.14
2022-10-28T00:35:31.475Z,17.18
2022-10-28T00:37:59.530Z,17.21
2022-10-28T00:40:27.599Z,17.18
2022-10-28T00:42:55.977Z,17.26
2022-10-28T00:45:26.061Z,17.31
2022-10-28T00:47:56.086Z,17.38
2022-10-28T00:50:40.879Z,17.41
2022-10-28T00:53:10.981Z,17.42
2022-10-28T00:55:39.033Z,17.55
2022-10-28T00:58:07.461Z,17.50
2022-10-28T01:00:35.590Z,17.43
2022-10-28T01:03:04.086Z,17.47
2022-10-28T01:05:35.033Z,17.46
2022-10-28T01:08:03.961Z,17.52
2022-10-28T01:10:40.847Z,17.57
2022-10-28T01:13:12.273Z,17.57
2022-10-28T01:15:43.920Z,17.62
2022-10-28T01:18:17.796Z,17.65
2022-10-28T01:21:11.830Z,17.63
2022-10-28T01:23:43.419Z,17.73
2022-10-28T01:26:38.634Z,17.70
2022-10-28T01:29:33.882Z,17.67
2022-10-28T01:32:05.648Z,17.69
2022-10-28T01:34:34.840Z,17.56
2022-10-28T01:37:06.190Z,17.57
2022-10-28T01:39:35.917Z,17.61
2022-10-28T01:42:10.580Z,17.55
2022-10-28T01:44:42.250Z,17.56
2022-10-28T01:47:12.761Z,17.64
2022-10-28T01:49:42.733Z,17.70
2022-10-28T01:52:12.499Z,17.80
2022-10-28T01:54:40.497Z,17.68
2022-10-28T01:57:08.495Z,17.73
2022-10-28T01:59:36.483Z,17.77
2022-10-28T02:02:04.491Z,17.72
2022-10-28T02:04:33.900Z,17.86
2022-10-28T02:07:01.945Z,17.72
2022-10-28T02:09:35.664Z,17.76
2022-10-28T02:12:11.789Z,17.80
2022-10-28T02:14:46.486Z,17.89
2022-10-28T02:17:20.891Z,17.87
2022-10-28T02:19:52.229Z,17.80
2022-10-28T02:22:21.968Z,17.85
2022-10-28T02:24:55.343Z,17.81
2022-10-28T02:27:26.900Z,17.77
2022-10-28T02:29:57.541Z,17.84
2022-10-28T02:32:26.616Z,17.86
2022-10-28T02:34:57.503Z,17.87
2022-10-28T02:37:27.987Z,17.83
2022-10-28T02:39:58.268Z,17.88
2022-10-28T02:42:28.020Z,17.81
2022-10-28T02:44:57.337Z,17.81
2022-10-28T02:47:26.611Z,17.85
2022-10-28T02:49:58.738Z,17.88
2022-10-28T02:52:27.228Z,17.86
2022-10-28T02:54:56.013Z,17.77
2022-10-28T02:57:25.243Z,17.83
2022-10-28T02:59:54.010Z,17.76
2022-10-28T03:02:22.062Z,17.77
2022-10-28T03:04:50.101Z,17.85
2022-10-28T03:07:19.445Z,17.88
2022-10-28T03:09:47.409Z,17.85
2022-10-28T03:12:15.455Z,17.89
2022-10-28T03:14:43.613Z,17.92
2022-10-28T03:17:11.651Z,18.00
2022-10-28T03:19:39.639Z,17.89
2022-10-28T03:22:07.642Z,17.78
2022-10-28T03:24:37.043Z,17.70
2022-10-28T03:27:05.149Z,17.63
2022-10-28T03:29:33.087Z,17.74
2022-10-28T03:32:01.097Z,17.57
2022-10-28T03:34:29.066Z,17.63
2022-10-28T03:36:57.418Z,17.45
2022-10-28T03:39:25.503Z,17.40
2022-10-28T03:41:54.986Z,17.37
2022-10-28T03:44:22.965Z,17.37
2022-10-28T03:46:51.383Z,17.37
2022-10-28T03:49:19.439Z,17.42
2022-10-28T03:51:47.546Z,17.36
2022-10-28T03:54:15.558Z,17.31
2022-10-28T03:56:43.587Z,17.25
2022-10-28T03:59:15.128Z,17.29
2022-10-28T04:01:45.872Z,17.22
2022-10-28T04:04:14.457Z,17.24
2022-10-28T04:06:42.496Z,17.21
2022-10-28T04:09:10.506Z,17.25
2022-10-28T04:11:38.758Z,17.25
2022-10-28T04:14:07.180Z,17.19
2022-10-28T04:16:36.717Z,17.13
2022-10-28T04:19:05.072Z,17.07
2022-10-28T04:21:33.059Z,17.18
2022-10-28T04:24:01.125Z,17.09
2022-10-28T04:26:30.748Z,17.00
2022-10-28T04:28:59.129Z,17.02
2022-10-28T04:31:27.073Z,17.00
2022-10-28T04:33:56.932Z,16.99
2022-10-28T04:36:25.557Z,16.99
2022-10-28T04:38:54.616Z,16.96
2022-10-28T04:41:22.594Z,16.98
2022-10-28T04:43:50.616Z,16.99
2022-10-28T04:46:21.853Z,16.91
2022-10-28T04:48:50.061Z,16.86
2022-10-28T04:51:19.456Z,16.85
2022-10-28T04:53:47.504Z,16.89
2022-10-28T04:56:15.590Z,16.91
2022-10-28T04:58:43.698Z,16.86
2022-10-28T05:01:12.368Z,16.88
2022-10-28T05:03:40.489Z,16.88
2022-10-28T05:06:09.840Z,16.84
2022-10-28T05:08:39.322Z,16.86
2022-10-28T05:11:07.448Z,16.78
2022-10-28T05:13:37.805Z,16.77
2022-10-28T05:16:10.275Z,16.87
2022-10-28T05:18:38.455Z,16.78
2022-10-28T05:21:08.225Z,16.75
2022-10-28T05:23:39.087Z,16.76
2022-10-28T05:26:07.121Z,16.75
2022-10-28T05:28:35.511Z,16.74
2022-10-28T05:31:03.607Z,16.76
2022-10-28T05:33:31.657Z,16.82
2022-10-28T05:36:00.276Z,16.83
2022-10-28T05:38:28.628Z,16.80
2022-10-28T05:40:58.009Z,16.77
2022-10-28T05:43:26.118Z,16.84
2022-10-28T05:45:54.328Z,16.83
2022-10-28T05:48:22.437Z,16.82
2022-10-28T05:50:50.910Z,16.83
2022-10-28T05:53:23.328Z,16.95
2022-10-28T05:55:52.244Z,16.88
2022-10-28T05:58:21.682Z,16.92
2022-10-28T06:00:49.678Z,16.94
2022-10-28T06:03:18.084Z,17.00
2022-10-28T06:05:46.262Z,16.93
2022-10-28T06:08:14.728Z,17.02
2022-10-28T06:10:42.716Z,16.90
2022-10-28T06:13:09.330Z,17.02
2022-10-28T06:15:38.755Z,17.00
2022-10-28T06:18:06.746Z,17.00
2022-10-28T06:20:34.904Z,16.93
2022-10-28T06:23:03.389Z,16.99
2022-10-28T06:25:31.908Z,16.94
2022-10-28T06:28:01.140Z,16.91
2022-10-28T06:30:29.527Z,16.92
2022-10-28T06:32:58.988Z,16.91
2022-10-28T06:35:27.440Z,16.95
2022-10-28T06:37:55.782Z,16.98
2022-10-28T06:40:24.133Z,16.94
2022-10-28T06:42:57.315Z,17.00
2022-10-28T06:45:26.151Z,16.99
2022-10-28T06:48:00.328Z,17.02
2022-10-28T06:50:28.427Z,17.09
2022-10-28T06:52:57.143Z,17.16
2022-10-28T06:55:25.375Z,17.17
2022-10-28T06:57:53.666Z,17.18
2022-10-28T07:00:22.718Z,17.21
2022-10-28T07:02:52.183Z,17.18
2022-10-28T07:05:21.606Z,17.24
2022-10-28T07:07:50.917Z,17.29
2022-10-28T07:10:19.912Z,17.23
2022-10-28T07:12:49.710Z,17.35
2022-10-28T07:15:17.817Z,17.23
2022-10-28T07:17:45.938Z,17.27
2022-10-28T07:20:14.274Z,17.23
2022-10-28T07:22:43.651Z,17.35
2022-10-28T07:25:11.653Z,17.31
2022-10-28T07:27:39.644Z,17.33
2022-10-28T07:30:08.818Z,17.40
2022-10-28T07:32:36.817Z,17.51
2022-10-28T07:35:05.776Z,17.48
2022-10-28T07:37:33.832Z,17.58
2022-10-28T07:40:03.337Z,17.58
2022-10-28T07:42:32.631Z,17.68
2022-10-28T07:45:02.185Z,17.82
2022-10-28T07:47:30.519Z,17.72
2022-10-28T07:50:01.196Z,17.78
2022-10-28T07:52:29.453Z,17.83
2022-10-28T07:54:57.764Z,17.81
2022-10-28T07:57:27.592Z,17.93
2022-10-28T07:59:55.700Z,17.87
2022-10-28T08:02:24.968Z,17.98
2022-10-28T08:04:53.142Z,18.06
2022-10-28T08:07:21.317Z,17.97
2022-10-28T08:09:49.867Z,18.05
2022-10-28T08:12:17.923Z,18.04
2022-10-28T08:14:47.372Z,18.17
2022-10-28T08:17:15.897Z,18.10
2022-10-28T08:19:43.862Z,18.15
2022-10-28T08:22:11.834Z,18.29
2022-10-28T08:24:40.062Z,18.21
2022-10-28T08:27:08.405Z,18.22
2022-10-28T08:29:36.399Z,18.29
2022-10-28T08:32:06.017Z,18.38
2022-10-28T08:34:34.508Z,18.51
2022-10-28T08:37:03.191Z,18.60
2022-10-28T08:39:31.868Z,18.58
2022-10-28T08:42:04.148Z,18.69
2022-10-28T08:44:39.658Z,18.73
2022-10-28T08:47:27.375Z,18.75
2022-10-28T08:49:57.819Z,18.81
2022-10-28T08:52:29.033Z,18.91
2022-10-28T08:55:01.337Z,18.97
2022-10-28T08:57:34.700Z,18.87
2022-10-28T09:00:03.445Z,18.86
2022-10-28T09:02:36.951Z,18.81
2022-10-28T09:05:07.735Z,19.03
2022-10-28T09:07:35.909Z,19.02
2022-10-28T09:10:05.684Z,18.95
2022-10-28T09:12:36.922Z,19.03
2022-10-28T09:15:15.925Z,18.97
2022-10-28T09:18:03.917Z,19.00
2022-10-28T09:20:36.619Z,19.03
2022-10-28T09:23:06.997Z,19.02
2022-10-28T09:25:40.222Z,19.18
2022-10-28T09:28:16.879Z,19.26
2022-10-28T09:30:50.136Z,19.28
2022-10-28T09:33:37.706Z,19.45
2022-10-28T09:36:06.422Z,19.27
2022-10-28T09:38:35.568Z,19.43
2022-10-28T09:41:05.069Z,19.49
2022-10-28T09:43:34.468Z,19.57
2022-10-28T09:46:05.028Z,19.67
2022-10-28T09:48:35.324Z,19.58
2022-10-28T09:51:04.188Z,19.63
2022-10-28T09:53:40.898Z,19.68
2022-10-28T09:56:09.450Z,19.65
2022-10-28T09:58:37.883Z,19.52
2022-10-28T10:01:06.143Z,19.72
2022-10-28T10:03:35.534Z,19.70
2022-10-28T10:06:12.874Z,19.80
2022-10-28T10:08:41.137Z,19.90
2022-10-28T10:11:15.037Z,20.03
2022-10-28T10:13:43.540Z,20.12
2022-10-28T10:16:17.982Z,20.06
2022-10-28T10:18:51.118Z,20.17
2022-10-28T10:21:21.919Z,20.27
2022-10-28T10:23:52.219Z,20.31
2022-10-28T10:26:20.743Z,20.53
2022-10-28T10:28:50.093Z,20.45
2022-10-28T10:31:20.462Z,20.67
2022-10-28T10:33:52.133Z,20.80
2022-10-28T10:36:23.363Z,20.88
2022-10-28T10:38:54.135Z,20.80
2022-10-28T10:41:35.481Z,20.71
2022-10-28T10:44:05.073Z,20.83
2022-10-28T10:46:34.272Z,20.97
2022-10-28T10:49:14.578Z,20.89
2022-10-28T10:51:45.465Z,20.88
2022-10-28T10:54:15.044Z,20.99
2022-10-28T10:56:43.117Z,21.08
2022-10-28T10:59:19.769Z,21.28
2022-10-28T11:01:51.564Z,21.19
2022-10-28T11:04:23.035Z,21.37
2022-10-28T11:06:54.380Z,21.72
2022-10-28T11:09:26.205Z,21.85
2022-10-28T11:11:55.571Z,21.67
2022-10-28T11:14:25.658Z,21.87
2022-10-28T11:16:54.927Z,21.83
2022-10-28T11:19:25.977Z,21.78
2022-10-28T11:22:07.032Z,21.86
2022-10-28T11:25:02.264Z,22.19
2022-10-28T11:27:36.538Z,22.26
2022-10-28T11:30:05.083Z,22.39
2022-10-28T11:32:45.225Z,22.34
2022-10-28T11:35:35.874Z,22.31
2022-10-28T11:38:10.760Z,22.49
2022-10-28T11:40:45.069Z,22.42
2022-10-28T11:43:20.076Z,22.31
2022-10-28T11:45:55.771Z,22.45
2022-10-28T11:48:31.350Z,22.75
2022-10-28T11:51:09.784Z,22.77
2022-10-28T11:53:45.183Z,22.77
2022-10-28T11:56:19.164Z,22.86
2022-10-28T11:58:50.982Z,22.86
2022-10-28T12:01:36.136Z,23.02
2022-10-28T12:04:11.901Z,22.97
2022-10-28T12:06:51.562Z,23.17
2022-10-28T12:09:23.155Z,23.05
2022-10-28T12:11:59.126Z,23.16
2022-10-28T12:14:31.170Z,23.13
2022-10-28T12:17:03.942Z,23.01
2022-10-28T12:19:35.143Z,23.18
2022-10-28T12:22:07.301Z,23.50
2022-10-28T12:24:36.298Z,23.35
2022-10-28T12:27:10.610Z,23.26
2022-10-28T12:29:44.385Z,23.16
2022-10-28T12:32:16.115Z,23.20
2022-10-28T12:34:46.831Z,23.40
2022-10-28T12:37:18.317Z,23.46
2022-10-28T12:39:49.726Z,23.31
2022-10-28T12:42:20.868Z,23.38
2022-10-28T12:44:52.850Z,23.34
2022-10-28T12:47:25.111Z,23.29
2022-10-28T12:50:00.333Z,23.42
2022-10-28T12:52:34.318Z,23.30
2022-10-28T12:55:07.910Z,23.20
2022-10-28T12:57:36.517Z,23.51
2022-10-28T13:00:06.530Z,23.31
2022-10-28T13:02:43.391Z,23.32
2022-10-28T13:05:16.686Z,23.16
2022-10-28T13:08:19.846Z,23.42
2022-10-28T13:10:49.591Z,23.24
2022-10-28T13:13:37.257Z,23.39
2022-10-28T13:16:35.768Z,23.23
2022-10-28T13:19:18.420Z,23.24
2022-10-28T13:22:31.192Z,22.95
2022-10-28T13:25:04.036Z,22.86
2022-10-28T13:27:32.201Z,22.73
2022-10-28T13:30:00.903Z,22.77
2022-10-28T13:32:38.287Z,22.83
2022-10-28T13:35:16.334Z,22.73
2022-10-28T13:37:46.995Z,22.72
2022-10-28T13:41:18.875Z,22.92
2022-10-28T13:44:24.444Z,22.52
2022-10-28T13:47:06.918Z,22.53
2022-10-28T13:49:35.038Z,22.64
2022-10-28T13:52:03.927Z,22.65
2022-10-28T13:54:33.004Z,22.82
2022-10-28T13:57:07.930Z,22.67
2022-10-28T13:59:51.679Z,22.77
2022-10-28T14:02:40.302Z,22.84
2022-10-28T14:05:13.521Z,22.79
2022-10-28T14:07:54.227Z,22.76
2022-10-28T14:10:24.400Z,22.75
2022-10-28T14:12:56.471Z,22.70
2022-10-28T14:15:26.739Z,22.64
2022-10-28T14:18:09.714Z,22.64
2022-10-28T14:20:59.012Z,22.61
2022-10-28T14:24:10.220Z,22.62
2022-10-28T14:27:28.487Z,22.41
2022-10-28T14:30:29.650Z,22.38
2022-10-28T14:33:15.253Z,22.39
2022-10-28T14:35:43.754Z,22.17
2022-10-28T14:38:32.599Z,22.31
2022-10-28T14:41:07.805Z,22.14
2022-10-28T14:43:44.838Z,22.18
2022-10-28T14:46:29.077Z,22.09
2022-10-28T14:48:59.247Z,22.18
2022-10-28T14:51:29.132Z,22.08
2022-10-28T14:53:58.921Z,22.04
2022-10-28T14:56:28.150Z,21.90
2022-10-28T14:58:58.031Z,21.85
2022-10-28T15:01:28.014Z,22.00
2022-10-28T15:04:00.187Z,21.90
2022-10-28T15:06:32.895Z,21.86
2022-10-28T15:09:17.406Z,21.82
2022-10-28T15:11:48.061Z,21.78
2022-10-28T15:14:24.295Z,21.84
2022-10-28T15:16:52.780Z,21.67
2022-10-28T15:19:23.580Z,21.63
2022-10-28T15:22:05.791Z,21.56
2022-10-28T15:24:47.088Z,21.51
2022-10-28T15:27:16.610Z,21.46
2022-10-28T15:29:45.123Z,21.58
2022-10-28T15:32:16.444Z,21.56
2022-10-28T15:34:46.769Z,21.42
2022-10-28T15:37:19.851Z,21.33
2022-10-28T15:39:49.536Z,21.36
2022-10-28T15:42:32.656Z,21.41
2022-10-28T15:45:01.252Z,21.34
2022-10-28T15:47:33.197Z,21.37
2022-10-28T15:50:05.319Z,21.18
2022-10-28T15:52:38.871Z,20.97
2022-10-28T15:56:02.300Z,21.04
2022-10-28T15:58:37.102Z,21.00
2022-10-28T16:01:09.361Z,20.81
2022-10-28T16:03:45.898Z,20.83
2022-10-28T16:06:29.252Z,20.74
2022-10-28T16:09:05.721Z,20.55
2022-10-28T16:11:36.525Z,20.36
2022-10-28T16:14:07.305Z,20.35
2022-10-28T16:16:35.599Z,20.43
2022-10-28T16:19:08.220Z,20.39
2022-10-28T16:21:39.244Z,20.30
2022-10-28T16:24:10.136Z,20.24
2022-10-28T16:26:38.091Z,20.13
2022-10-28T16:29:06.097Z,20.05
2022-10-28T16:31:34.117Z,20.05
2022-10-28T16:34:03.471Z,20.06
2022-10-28T16:36:32.339Z,20.04
2022-10-28T16:39:01.983Z,19.86
2022-10-28T16:41:30.018Z,19.75
2022-10-28T16:43:58.817Z,19.84
2022-10-28T16:46:27.297Z,19.88
2022-10-28T16:48:55.647Z,19.84
2022-10-28T16:51:24.068Z,19.60
2022-10-28T16:53:52.079Z,19.61
2022-10-28T16:56:22.747Z,19.66
2022-10-28T16:58:51.513Z,19.63
2022-10-28T17:01:21.065Z,19.41
2022-10-28T17:03:49.234Z,19.49
2022-10-28T17:06:17.783Z,19.49
2022-10-28T17:09:03.408Z,19.47
2022-10-28T17:11:35.980Z,19.39
2022-10-28T17:14:04.081Z,19.38
2022-10-28T17:16:32.265Z,19.31
2022-10-28T17:19:00.915Z,19.37
2022-10-28T17:21:28.971Z,19.25
2022-10-28T17:23:56.968Z,19.17
2022-10-28T17:26:25.065Z,18.96
2022-10-28T17:28:54.440Z,18.91
2022-10-28T17:31:25.097Z,18.90
2022-10-28T17:33:55.322Z,18.93
2022-10-28T17:36:24.356Z,18.93
2022-10-28T17:38:52.387Z,18.91
2022-10-28T17:41:20.828Z,18.81
2022-10-28T17:43:48.824Z,18.79
2022-10-28T17:46:18.409Z,18.84
2022-10-28T17:48:46.438Z,18.85
2022-10-28T17:51:14.925Z,18.91
2022-10-28T17:53:43.026Z,18.84
2022-10-28T17:56:11.124Z,18.79
2022-10-28T17:58:39.283Z,18.75
2022-10-28T18:01:08.711Z,18.77
2022-10-28T18:03:39.215Z,18.64
2022-10-28T18:06:08.965Z,18.62
2022-10-28T18:08:37.422Z,18.70
2022-10-28T18:11:05.837Z,18.66
2022-10-28T18:13:34.456Z,18.62
2022-10-28T18:16:05.196Z,18.57
2022-10-28T18:18:37.456Z,18.60
2022-10-28T18:21:10.962Z,18.63
2022-10-28T18:23:39.127Z,18.49
2022-10-28T18:26:07.827Z,18.44
2022-10-28T18:28:36.549Z,18.47
2022-10-28T18:31:05.456Z,18.36
2022-10-28T18:33:33.701Z,18.42
2022-10-28T18:36:02.198Z,18.33
2022-10-28T18:38:33.363Z,18.48
2022-10-28T18:41:03.317Z,18.45
2022-10-28T18:43:31.354Z,18.45
2022-10-28T18:46:01.652Z,18.38
2022-10-28T18:48:29.675Z,18.39
2022-10-28T18:50:57.869Z,18.35
2022-10-28T18:53:25.851Z,18.26
2022-10-28T18:56:00.908Z,18.27
2022-10-28T18:58:31.534Z,18.22
2022-10-28T19:01:05.762Z,18.23
2022-10-28T19:03:33.730Z,18.18
2022-10-28T19:06:05.373Z,18.13
2022-10-28T19:08:33.392Z,18.10
2022-10-28T19:11:03.572Z,18.09
2022-10-28T19:13:33.768Z,18.06
2022-10-28T19:16:01.805Z,18.01
2022-10-28T19:18:30.326Z,17.87
2022-10-28T19:21:04.245Z,17.85
2022-10-28T19:23:32.664Z,17.80
2022-10-28T19:26:02.210Z,17.78
2022-10-28T19:28:30.320Z,17.70
2022-10-28T19:31:03.383Z,17.73
2022-10-28T19:33:31.884Z,17.69
2022-10-28T19:36:07.089Z,17.65
2022-10-28T19:38:36.284Z,17.59
2022-10-28T19:41:14.291Z,17.62
2022-10-28T19:43:42.385Z,17.52
2022-10-28T19:46:12.023Z,17.55
2022-10-28T19:48:40.541Z,17.60
2022-10-28T19:51:08.737Z,17.56
2022-10-28T19:53:36.726Z,17.62
2022-10-28T19:56:05.213Z,17.58
2022-10-28T19:58:35.049Z,17.64
2022-10-28T20:01:04.033Z,17.61
2022-10-28T20:03:42.820Z,17.56
2022-10-28T20:09:05.273Z,17.55
2022-10-28T20:11:37.491Z,17.47
2022-10-28T20:14:08.459Z,17.51
2022-10-28T20:16:36.716Z,17.49
2022-10-28T20:19:04.794Z,17.44
2022-10-28T20:21:34.555Z,17.48
2022-10-28T20:24:02.679Z,17.51
2022-10-28T20:26:31.481Z,17.50
2022-10-28T20:28:59.669Z,17.54
2022-10-28T20:31:29.741Z,17.54
2022-10-28T20:33:58.732Z,17.55
2022-10-28T20:36:30.764Z,17.54
2022-10-28T20:38:59.555Z,17.54
2022-10-28T20:41:29.201Z,17.47
2022-10-28T20:43:57.418Z,17.50
2022-10-28T20:46:26.083Z,17.48
2022-10-28T20:48:56.607Z,17.51
2022-10-28T20:51:26.551Z,17.47
2022-10-28T20:53:54.700Z,17.46
2022-10-28T20:56:24.361Z,17.45
2022-10-28T20:58:52.435Z,17.47
2022-10-28T21:01:21.310Z,17.40
2022-10-28T21:03:50.151Z,17.37
2022-10-28T21:06:19.621Z,17.33
2022-10-28T21:08:47.665Z,17.39
2022-10-28T21:11:16.127Z,17.24
2022-10-28T21:13:44.324Z,17.35
2022-10-28T21:16:12.728Z,17.39
2022-10-28T21:18:41.300Z,17.36
2022-10-28T21:21:09.313Z,17.28
2022-10-28T21:23:38.995Z,17.30
2022-10-28T21:26:07.992Z,17.28
2022-10-28T21:28:36.312Z,17.24
2022-10-28T21:31:05.349Z,17.12
2022-10-28T21:33:33.948Z,17.13
2022-10-28T21:36:03.567Z,17.17
2022-10-28T21:38:31.636Z,17.05
2022-10-28T21:41:02.248Z,17.14
2022-10-28T21:43:30.822Z,17.12
2022-10-28T21:45:58.803Z,17.09
2022-10-28T21:48:27.352Z,17.12
2022-10-28T21:50:56.488Z,17.08
2022-10-28T21:53:24.814Z,17.11
2022-10-28T21:55:54.874Z,17.06
2022-10-28T21:58:25.013Z,17.06
2022-10-28T22:00:53.269Z,17.02
2022-10-28T22:03:21.251Z,16.94
2022-10-28T22:05:52.525Z,17.01
2022-10-28T22:08:21.606Z,16.97
2022-10-28T22:10:49.615Z,16.99
2022-10-28T22:13:17.801Z,16.90
2022-10-28T22:15:47.202Z,16.92
2022-10-28T22:18:15.748Z,16.93
2022-10-28T22:20:43.752Z,16.91
2022-10-28T22:23:11.975Z,16.91
2022-10-28T22:25:39.950Z,16.90
2022-10-28T22:28:08.401Z,16.86
2022-10-28T22:30:36.379Z,16.86
2022-10-28T22:33:06.033Z,16.87
2022-10-28T22:35:33.975Z,16.86
2022-10-28T22:38:02.972Z,16.78
2022-10-28T22:40:31.239Z,16.75
2022-10-28T22:42:59.326Z,16.82
2022-10-28T22:45:27.418Z,16.83
2022-10-28T22:47:56.258Z,16.90
2022-10-28T22:50:25.864Z,16.90
2022-10-28T22:52:53.861Z,16.85
2022-10-28T22:55:21.818Z,16.90
2022-10-28T22:57:50.145Z,16.92
2022-10-28T23:02:48.103Z,16.83
2022-10-28T23:05:16.829Z,16.80
2022-10-28T23:07:46.252Z,16.77
2022-10-28T23:10:14.432Z,16.75
2022-10-28T23:12:42.745Z,16.56
2022-10-28T23:15:10.896Z,16.56
2022-10-28T23:17:38.865Z,16.56
2022-10-28T23:20:07.695Z,16.61
2022-10-28T23:22:35.633Z,16.57
2022-10-28T23:25:05.286Z,16.49
2022-10-28T23:27:33.553Z,16.54
2022-10-28T23:30:01.555Z,16.45
2022-10-28T23:32:29.653Z,16.48
2022-10-28T23:34:57.662Z,16.51
2022-10-28T23:37:25.647Z,16.55
2022-10-28T23:39:54.025Z,16.53
2022-10-28T23:42:24.922Z,16.58
2022-10-28T23:44:52.979Z,16.58
2022-10-28T23:47:20.962Z,16.59
2022-10-28T23:49:49.275Z,16.63
2022-10-28T23:52:20.404Z,16.64
2022-10-28T23:54:48.422Z,16.66
2022-10-28T23:57:16.409Z,16.63
2022-10-28T23:59:46.006Z,16.67
